createdAt,value
2022-08-03T00:02:20.314Z,99.90
2022-08-03T00:04:48.325Z,99.90
2022-08-03T00:07:16.373Z,99.90
2022-08-03T00:09:44.409Z,99.90
2022-08-03T00:12:12.701Z,99.90
2022-08-03T00:14:41.900Z,99.90
2022-08-03T00:17:09.973Z,99.90
2022-08-03T00:19:37.808Z,99.90
2022-08-03T00:22:05.993Z,99.90
2022-08-03T00:24:36.036Z,99.90
2022-08-03T00:27:04.091Z,99.90
2022-08-03T00:29:32.780Z,99.90
2022-08-03T00:32:02.790Z,99.90
2022-08-03T00:34:57.185Z,99.90
2022-08-03T00:37:19.230Z,99.90
2022-08-03T00:39:47.950Z,99.90
2022-08-03T00:42:16.810Z,99.90
2022-08-03T00:44:45.965Z,99.90
2022-08-03T00:47:15.688Z,99.90
2022-08-03T00:49:44.338Z,99.90
2022-08-03T00:52:14.453Z,99.90
2022-08-03T00:54:42.634Z,99.90
2022-08-03T00:57:15.948Z,99.90
2022-08-03T00:59:43.746Z,99.90
2022-08-03T01:02:12.150Z,99.90
2022-08-03T01:04:42.355Z,99.90
2022-08-03T01:07:18.626Z,99.90
2022-08-03T01:09:58.924Z,99.90
2022-08-03T01:12:33.965Z,99.90
2022-08-03T01:15:12.789Z,99.90
2022-08-03T01:17:57.338Z,99.90
2022-08-03T01:20:30.737Z,99.90
2022-08-03T01:23:17.108Z,99.90
2022-08-03T01:26:10.682Z,99.90
2022-08-03T01:29:02.713Z,99.90
2022-08-03T01:32:53.429Z,99.90
2022-08-03T01:34:30.532Z,99.90
2022-08-03T01:37:00.471Z,99.90
2022-08-03T01:39:32.053Z,99.90
2022-08-03T01:42:06.006Z,99.90
2022-08-03T01:44:39.754Z,99.90
2022-08-03T01:47:09.589Z,99.90
2022-08-03T01:49:41.541Z,99.90
2022-08-03T01:52:10.494Z,99.90
2022-08-03T01:54:43.141Z,99.90
2022-08-03T01:57:12.186Z,99.90
2022-08-03T01:59:41.069Z,99.90
2022-08-03T02:02:28.443Z,99.90
2022-08-03T02:05:02.835Z,99.90
2022-08-03T02:07:31.462Z,99.90
2022-08-03T02:10:01.174Z,99.90
2022-08-03T02:12:30.680Z,99.90
2022-08-03T02:15:00.922Z,99.90
2022-08-03T02:17:39.587Z,99.90
2022-08-03T02:20:09.988Z,99.90
2022-08-03T02:22:41.245Z,99.90
2022-08-03T02:25:11.188Z,99.90
2022-08-03T02:27:44.182Z,99.90
2022-08-03T02:30:13.558Z,99.90
2022-08-03T02:32:49.631Z,99.90
2022-08-03T02:35:20.141Z,99.90
2022-08-03T02:37:52.807Z,99.90
2022-08-03T02:40:23.616Z,99.90
2022-08-03T02:42:56.323Z,99.90
2022-08-03T02:45:26.139Z,99.90
2022-08-03T02:47:59.034Z,99.90
2022-08-03T02:50:30.274Z,99.90
2022-08-03T02:53:00.625Z,99.90
2022-08-03T02:55:29.346Z,99.90
2022-08-03T02:58:01.640Z,99.90
2022-08-03T03:00:30.597Z,99.90
2022-08-03T03:03:01.649Z,99.90
2022-08-03T03:05:52.387Z,99.90
2022-08-03T03:08:26.213Z,99.90
2022-08-03T03:10:58.083Z,99.90
2022-08-03T03:13:26.260Z,99.90
2022-08-03T03:15:57.515Z,99.90
2022-08-03T03:18:28.508Z,99.90
2022-08-03T03:20:57.222Z,99.90
2022-08-03T03:23:27.125Z,99.90
2022-08-03T03:25:56.481Z,99.90
2022-08-03T03:28:25.069Z,99.90
2022-08-03T03:30:53.612Z,99.90
2022-08-03T03:33:21.969Z,99.90
2022-08-03T03:35:51.709Z,99.90
2022-08-03T03:38:19.974Z,99.90
2022-08-03T03:40:48.639Z,99.90
2022-08-03T03:43:18.380Z,99.90
2022-08-03T03:45:48.321Z,99.90
2022-08-03T03:48:16.477Z,99.90
2022-08-03T03:50:45.388Z,99.90
2022-08-03T03:53:16.150Z,99.90
2022-08-03T03:56:01.726Z,99.90
2022-08-03T03:58:31.552Z,99.90
2022-08-03T04:00:59.491Z,99.90
2022-08-03T04:03:27.376Z,99.90
2022-08-03T04:06:12.601Z,99.90
2022-08-03T04:09:13.832Z,99.90
2022-08-03T04:11:46.609Z,99.90
2022-08-03T04:14:18.798Z,99.90
2022-08-03T04:16:50.204Z,99.90
2022-08-03T04:19:23.639Z,99.90
2022-08-03T04:21:57.070Z,99.90
2022-08-03T04:24:31.072Z,99.90
2022-08-03T04:27:00.355Z,99.90
2022-08-03T04:29:30.516Z,99.90
2022-08-03T04:32:00.799Z,99.90
2022-08-03T04:34:31.225Z,99.90
2022-08-03T04:37:01.404Z,99.90
2022-08-03T04:39:33.730Z,99.90
2022-08-03T04:42:07.831Z,99.90
2022-08-03T04:44:38.940Z,99.90
2022-08-03T04:47:07.466Z,99.90
2022-08-03T04:49:37.589Z,99.90
2022-08-03T04:52:06.284Z,99.90
2022-08-03T04:54:42.316Z,99.90
2022-08-03T04:57:11.514Z,99.90
2022-08-03T04:59:58.290Z,99.90
2022-08-03T05:02:29.822Z,99.90
2022-08-03T05:04:57.992Z,99.90
2022-08-03T05:07:25.820Z,99.90
2022-08-03T05:10:01.717Z,99.90
2022-08-03T05:12:33.132Z,99.90
2022-08-03T05:15:01.437Z,99.90
2022-08-03T05:17:29.353Z,99.90
2022-08-03T05:19:57.595Z,99.90
2022-08-03T05:22:25.529Z,99.90
2022-08-03T05:24:54.706Z,99.90
2022-08-03T05:27:22.514Z,99.90
2022-08-03T05:29:51.248Z,99.90
2022-08-03T05:32:19.867Z,99.90
2022-08-03T05:34:47.865Z,99.90
2022-08-03T05:37:15.743Z,99.90
2022-08-03T05:39:43.540Z,99.90
2022-08-03T05:42:12.845Z,99.90
2022-08-03T05:44:42.009Z,99.90
2022-08-03T05:47:09.838Z,99.90
2022-08-03T05:49:37.729Z,99.90
2022-08-03T05:52:10.604Z,99.90
2022-08-03T05:54:56.390Z,99.90
2022-08-03T05:57:27.049Z,99.90
2022-08-03T05:59:58.182Z,99.90
2022-08-03T06:02:26.671Z,99.90
2022-08-03T06:04:54.580Z,99.90
2022-08-03T06:07:22.611Z,99.90
2022-08-03T06:10:34.562Z,99.90
2022-08-03T06:12:41.226Z,99.90
2022-08-03T06:15:11.237Z,99.90
2022-08-03T06:17:47.049Z,99.90
2022-08-03T06:20:17.001Z,99.90
2022-08-03T06:22:50.795Z,99.90
2022-08-03T06:25:28.763Z,99.90
2022-08-03T06:27:57.966Z,99.90
2022-08-03T06:30:25.894Z,99.90
2022-08-03T06:32:53.733Z,99.90
2022-08-03T06:35:21.901Z,99.90
2022-08-03T06:37:51.502Z,99.90
2022-08-03T06:40:28.400Z,99.90
2022-08-03T06:42:57.892Z,99.90
2022-08-03T06:45:26.066Z,99.90
2022-08-03T06:48:04.562Z,99.90
2022-08-03T06:50:33.036Z,99.90
2022-08-03T06:53:01.861Z,99.90
2022-08-03T06:55:30.021Z,99.90
2022-08-03T06:58:03.482Z,99.90
2022-08-03T07:00:31.810Z,99.90
2022-08-03T07:02:59.724Z,99.90
2022-08-03T07:05:28.301Z,99.90
2022-08-03T07:07:57.589Z,99.90
2022-08-03T07:10:25.588Z,99.90
2022-08-03T07:12:56.515Z,99.90
2022-08-03T07:15:53.821Z,99.90
2022-08-03T07:18:14.013Z,99.90
2022-08-03T07:20:42.149Z,99.90
2022-08-03T07:23:10.426Z,99.90
2022-08-03T07:25:46.785Z,99.90
2022-08-03T07:28:14.600Z,99.90
2022-08-03T07:30:43.757Z,99.90
2022-08-03T07:33:11.583Z,99.90
2022-08-03T07:35:39.540Z,99.90
2022-08-03T07:38:07.534Z,99.90
2022-08-03T07:40:35.431Z,99.90
2022-08-03T07:43:03.725Z,99.90
2022-08-03T07:45:31.846Z,99.90
2022-08-03T07:48:01.135Z,99.90
2022-08-03T07:50:28.965Z,99.90
2022-08-03T07:52:57.842Z,99.90
2022-08-03T07:55:27.841Z,99.90
2022-08-03T07:58:03.244Z,99.90
2022-08-03T08:00:31.320Z,99.90
2022-08-03T08:03:00.524Z,99.90
2022-08-03T08:05:29.385Z,99.90
2022-08-03T08:07:57.213Z,99.90
2022-08-03T08:10:25.253Z,99.80
2022-08-03T08:12:53.124Z,99.30
2022-08-03T08:15:21.042Z,98.70
2022-08-03T08:17:50.708Z,98.50
2022-08-03T08:20:28.056Z,97.80
2022-08-03T08:23:01.378Z,97.30
2022-08-03T08:25:30.251Z,97.10
2022-08-03T08:28:30.666Z,96.90
2022-08-03T08:30:46.513Z,96.90
2022-08-03T08:33:23.262Z,96.60
2022-08-03T08:35:54.289Z,96.00
2022-08-03T08:38:22.694Z,94.80
2022-08-03T08:40:51.005Z,94.40
2022-08-03T08:43:18.873Z,93.90
2022-08-03T08:45:48.350Z,93.20
2022-08-03T08:48:19.117Z,93.10
2022-08-03T08:50:47.201Z,92.70
2022-08-03T08:53:19.825Z,92.70
2022-08-03T08:55:59.665Z,92.50
2022-08-03T08:58:31.267Z,91.80
2022-08-03T09:00:59.435Z,91.10
2022-08-03T09:03:29.864Z,90.60
2022-08-03T09:06:02.022Z,90.10
2022-08-03T09:08:32.673Z,86.10
2022-08-03T09:11:01.023Z,85.90
2022-08-03T09:13:29.183Z,85.50
2022-08-03T09:16:12.797Z,85.60
2022-08-03T09:18:41.183Z,84.80
2022-08-03T09:21:35.734Z,83.10
2022-08-03T09:24:13.014Z,80.90
2022-08-03T09:26:53.890Z,79.50
2022-08-03T09:29:22.549Z,79.30
2022-08-03T09:31:50.374Z,78.50
2022-08-03T09:34:19.449Z,78.20
2022-08-03T09:36:48.667Z,76.40
2022-08-03T09:39:19.006Z,76.00
2022-08-03T09:41:48.316Z,75.20
2022-08-03T09:44:24.854Z,74.90
2022-08-03T09:46:57.138Z,72.00
2022-08-03T09:49:25.726Z,72.00
2022-08-03T09:52:33.693Z,71.90
2022-08-03T09:54:44.229Z,70.90
2022-08-03T09:57:23.062Z,69.60
2022-08-03T09:59:54.856Z,70.00
2022-08-03T10:02:30.995Z,70.50
2022-08-03T10:04:58.848Z,70.60
2022-08-03T10:07:27.253Z,70.40
2022-08-03T10:09:58.180Z,70.20
2022-08-03T10:12:48.693Z,70.00
2022-08-03T10:16:23.718Z,69.20
2022-08-03T10:18:05.764Z,69.00
2022-08-03T10:20:37.473Z,68.50
2022-08-03T10:23:06.714Z,68.00
2022-08-03T10:25:38.045Z,68.10
2022-08-03T10:28:07.565Z,67.90
2022-08-03T10:30:36.170Z,65.20
2022-08-03T10:33:12.275Z,65.90
2022-08-03T10:36:00.623Z,66.20
2022-08-03T10:38:33.825Z,66.10
2022-08-03T10:41:04.213Z,66.20
2022-08-03T10:43:38.025Z,65.60
2022-08-03T10:46:08.896Z,64.40
2022-08-03T10:48:37.616Z,63.50
2022-08-03T10:51:06.774Z,63.70
2022-08-03T10:53:38.602Z,63.10
2022-08-03T10:56:50.437Z,63.30
2022-08-03T10:59:27.963Z,63.00
2022-08-03T11:01:58.581Z,62.20
2022-08-03T11:04:29.379Z,62.20
2022-08-03T11:07:23.184Z,62.40
2022-08-03T11:09:52.510Z,61.40
2022-08-03T11:12:28.407Z,61.90
2022-08-03T11:15:00.409Z,61.70
2022-08-03T11:17:28.333Z,61.20
2022-08-03T11:19:58.137Z,60.90
2022-08-03T11:22:28.165Z,60.70
2022-08-03T11:25:00.490Z,58.30
2022-08-03T11:27:31.800Z,58.90
2022-08-03T11:30:02.258Z,58.70
2022-08-03T11:32:52.466Z,59.30
2022-08-03T11:35:21.961Z,58.30
2022-08-03T11:38:19.109Z,58.40
2022-08-03T11:40:48.942Z,58.90
2022-08-03T11:43:47.893Z,58.60
2022-08-03T11:46:28.641Z,58.00
2022-08-03T11:49:10.361Z,57.60
2022-08-03T11:51:40.425Z,57.70
2022-08-03T11:54:08.934Z,57.20
2022-08-03T11:56:46.436Z,57.40
2022-08-03T11:59:21.561Z,57.30
2022-08-03T12:01:50.843Z,57.10
2022-08-03T12:04:18.686Z,57.20
2022-08-03T12:07:00.189Z,56.60
2022-08-03T12:09:28.073Z,56.30
2022-08-03T12:11:59.709Z,55.10
2022-08-03T12:14:48.600Z,54.70
2022-08-03T12:17:18.219Z,54.70
2022-08-03T12:19:46.404Z,54.70
2022-08-03T12:22:15.933Z,55.50
2022-08-03T12:24:46.763Z,55.30
2022-08-03T12:27:24.292Z,54.90
2022-08-03T12:29:58.187Z,55.30
2022-08-03T12:32:27.561Z,56.00
2022-08-03T12:35:00.266Z,56.30
2022-08-03T12:37:28.585Z,56.00
2022-08-03T12:40:02.527Z,55.60
2022-08-03T12:42:34.974Z,54.90
2022-08-03T12:45:23.135Z,54.30
2022-08-03T12:47:52.478Z,53.80
2022-08-03T12:50:31.390Z,54.10
2022-08-03T12:53:00.703Z,54.00
2022-08-03T12:55:57.373Z,54.00
2022-08-03T12:58:33.449Z,53.90
2022-08-03T13:01:05.143Z,54.00
2022-08-03T13:03:43.503Z,54.10
2022-08-03T13:06:14.937Z,53.90
2022-08-03T13:08:43.929Z,53.30
2022-08-03T13:11:22.892Z,53.70
2022-08-03T13:14:17.490Z,53.80
2022-08-03T13:16:50.042Z,53.20
2022-08-03T13:19:17.876Z,52.90
2022-08-03T13:21:53.440Z,52.70
2022-08-03T13:24:32.033Z,52.70
2022-08-03T13:27:00.267Z,52.80
2022-08-03T13:29:28.090Z,53.00
2022-08-03T13:31:57.263Z,53.20
2022-08-03T13:34:25.115Z,52.80
2022-08-03T13:37:08.986Z,52.30
2022-08-03T13:39:48.199Z,52.90
2022-08-03T13:42:25.265Z,52.70
2022-08-03T13:44:53.145Z,52.60
2022-08-03T13:47:22.863Z,52.50
2022-08-03T13:49:54.142Z,51.60
2022-08-03T13:52:28.576Z,52.10
2022-08-03T13:54:56.426Z,52.20
2022-08-03T13:58:06.378Z,52.30
2022-08-03T14:00:13.249Z,51.80
2022-08-03T14:03:02.724Z,51.20
2022-08-03T14:05:32.675Z,51.70
2022-08-03T14:08:04.255Z,51.80
2022-08-03T14:10:33.220Z,51.70
2022-08-03T14:13:01.202Z,50.60
2022-08-03T14:15:29.392Z,50.80
2022-08-03T14:17:59.058Z,51.00
2022-08-03T14:20:38.125Z,50.40
2022-08-03T14:23:14.841Z,50.30
2022-08-03T14:25:43.623Z,50.80
2022-08-03T14:28:18.458Z,51.20
2022-08-03T14:30:46.604Z,51.50
2022-08-03T14:33:15.844Z,51.70
2022-08-03T14:35:43.886Z,52.00
2022-08-03T14:38:11.700Z,51.60
2022-08-03T14:40:39.538Z,51.70
2022-08-03T14:43:07.405Z,51.80
2022-08-03T14:45:35.305Z,51.80
2022-08-03T14:50:34.710Z,51.80
2022-08-03T14:50:55.033Z,51.80
2022-08-03T14:53:23.095Z,51.30
2022-08-03T14:55:52.730Z,51.60
2022-08-03T14:58:21.828Z,51.50
2022-08-03T15:00:51.259Z,51.50
2022-08-03T15:03:22.953Z,51.50
2022-08-03T15:05:52.970Z,51.70
2022-08-03T15:08:20.928Z,51.50
2022-08-03T15:10:49.204Z,51.60
2022-08-03T15:13:17.442Z,51.80
2022-08-03T15:15:45.391Z,51.90
2022-08-03T15:18:13.214Z,51.90
2022-08-03T15:20:45.893Z,52.10
2022-08-03T15:23:16.267Z,52.00
2022-08-03T15:26:28.008Z,52.00
2022-08-03T15:28:32.283Z,51.80
2022-08-03T15:31:00.327Z,51.40
2022-08-03T15:33:28.534Z,51.20
2022-08-03T15:35:57.520Z,51.80
2022-08-03T15:38:26.698Z,51.90
2022-08-03T15:40:55.294Z,52.20
2022-08-03T15:43:23.413Z,52.20
2022-08-03T15:46:19.132Z,51.70
2022-08-03T15:48:39.549Z,51.60
2022-08-03T15:51:07.752Z,51.80
2022-08-03T15:53:37.363Z,51.80
2022-08-03T15:56:11.413Z,52.00
2022-08-03T15:59:10.622Z,51.90
2022-08-03T16:01:30.809Z,52.10
2022-08-03T16:03:58.656Z,52.10
2022-08-03T16:06:34.918Z,52.20
2022-08-03T16:09:23.859Z,52.00
2022-08-03T16:11:54.630Z,52.30
2022-08-03T16:14:32.463Z,52.00
2022-08-03T16:17:04.024Z,51.90
2022-08-03T16:19:31.826Z,52.10
2022-08-03T16:21:59.835Z,51.90
2022-08-03T16:24:29.995Z,52.20
2022-08-03T16:26:58.107Z,52.10
2022-08-03T16:29:28.427Z,52.20
2022-08-03T16:31:56.275Z,52.40
2022-08-03T16:34:24.094Z,52.60
2022-08-03T16:36:52.414Z,52.80
2022-08-03T16:39:20.254Z,52.90
2022-08-03T16:41:54.077Z,53.00
2022-08-03T16:44:30.748Z,53.40
2022-08-03T16:46:58.980Z,53.40
2022-08-03T16:49:53.890Z,53.50
2022-08-03T16:52:16.495Z,53.70
2022-08-03T16:54:50.607Z,53.60
2022-08-03T16:57:56.480Z,53.70
2022-08-03T17:00:34.124Z,53.80
2022-08-03T17:03:04.325Z,53.90
2022-08-03T17:05:46.904Z,54.10
2022-08-03T17:08:15.506Z,54.40
2022-08-03T17:10:45.194Z,54.60
2022-08-03T17:13:15.197Z,55.00
2022-08-03T17:15:57.967Z,55.20
2022-08-03T17:18:32.346Z,55.30
2022-08-03T17:21:03.880Z,55.50
2022-08-03T17:23:40.273Z,55.60
2022-08-03T17:26:21.159Z,55.70
2022-08-03T17:28:57.627Z,55.90
2022-08-03T17:31:31.119Z,55.90
2022-08-03T17:34:00.958Z,55.80
2022-08-03T17:36:53.956Z,56.00
2022-08-03T17:39:27.085Z,56.50
2022-08-03T17:42:05.264Z,56.90
2022-08-03T17:44:55.175Z,56.80
2022-08-03T17:47:29.216Z,57.10
2022-08-03T17:50:23.912Z,57.40
2022-08-03T17:53:07.049Z,58.00
2022-08-03T17:55:57.653Z,57.80
2022-08-03T17:58:41.462Z,57.80
2022-08-03T18:01:57.501Z,58.20
2022-08-03T18:04:30.693Z,58.30
2022-08-03T18:07:11.629Z,58.10
2022-08-03T18:10:04.653Z,58.20
2022-08-03T18:12:40.161Z,58.60
2022-08-03T18:15:22.176Z,59.00
2022-08-03T18:18:01.935Z,59.30
2022-08-03T18:20:40.915Z,60.10
2022-08-03T18:23:10.837Z,60.70
2022-08-03T18:25:57.734Z,61.40
2022-08-03T18:28:27.720Z,61.70
2022-08-03T18:30:58.456Z,61.50
2022-08-03T18:34:18.322Z,61.90
2022-08-03T18:36:29.443Z,62.90
2022-08-03T18:38:59.529Z,64.60
2022-08-03T18:41:33.736Z,65.10
2022-08-03T18:47:07.271Z,65.30
2022-08-03T18:49:53.764Z,65.70
2022-08-03T18:52:27.730Z,66.80
2022-08-03T18:55:09.453Z,66.70
2022-08-03T18:57:53.107Z,66.60
2022-08-03T19:00:23.912Z,67.40
2022-08-03T19:02:58.602Z,68.30
2022-08-03T19:05:57.833Z,69.10
2022-08-03T19:08:25.961Z,69.80
2022-08-03T19:11:00.705Z,70.70
2022-08-03T19:13:36.291Z,71.30
2022-08-03T19:16:08.561Z,71.90
2022-08-03T19:18:38.496Z,72.20
2022-08-03T19:21:15.512Z,72.80
2022-08-03T19:23:46.917Z,73.80
2022-08-03T19:26:30.335Z,74.20
2022-08-03T19:28:59.833Z,74.40
2022-08-03T19:31:31.033Z,74.60
2022-08-03T19:34:04.394Z,75.30
2022-08-03T19:36:35.928Z,75.00
2022-08-03T19:39:09.251Z,76.10
2022-08-03T19:41:41.995Z,76.60
2022-08-03T19:44:19.891Z,76.70
2022-08-03T19:46:53.133Z,77.10
2022-08-03T19:49:26.081Z,77.10
2022-08-03T19:52:20.567Z,76.50
2022-08-03T19:54:54.615Z,76.70
2022-08-03T19:57:25.731Z,77.00
2022-08-03T19:59:56.557Z,77.10
2022-08-03T20:02:26.966Z,77.10
2022-08-03T20:05:15.525Z,77.40
2022-08-03T20:07:48.603Z,78.00
2022-08-03T20:10:18.168Z,78.50
2022-08-03T20:12:48.341Z,78.90
2022-08-03T20:15:30.955Z,79.30
2022-08-03T20:18:06.982Z,79.50
2022-08-03T20:20:46.633Z,79.90
2022-08-03T20:23:18.666Z,80.40
2022-08-03T20:25:57.267Z,81.00
2022-08-03T20:28:31.634Z,81.00
2022-08-03T20:31:00.129Z,81.20
2022-08-03T20:33:48.540Z,81.20
2022-08-03T20:36:18.136Z,81.00
2022-08-03T20:38:48.348Z,81.50
2022-08-03T20:41:16.930Z,82.00
2022-08-03T20:43:45.141Z,82.60
2022-08-03T20:46:29.076Z,83.20
2022-08-03T20:49:03.953Z,83.80
2022-08-03T20:51:52.340Z,84.40
2022-08-03T20:54:30.931Z,84.70
2022-08-03T20:57:00.551Z,85.00
2022-08-03T20:59:46.792Z,85.30
2022-08-03T21:02:19.383Z,85.70
2022-08-03T21:04:56.494Z,86.10
2022-08-03T21:08:04.081Z,86.70
2022-08-03T21:10:17.465Z,87.20
2022-08-03T21:12:52.426Z,87.40
2022-08-03T21:13:04.224Z,64.90
2022-08-03T21:16:13.136Z,87.90
2022-08-03T21:18:14.314Z,88.10
2022-08-03T21:20:44.745Z,88.80
2022-08-03T21:23:35.040Z,89.20
2022-08-03T21:26:04.225Z,89.70
2022-08-03T21:28:32.344Z,89.90
2022-08-03T21:31:00.221Z,90.00
2022-08-03T21:33:28.998Z,90.20
2022-08-03T21:35:57.116Z,90.40
2022-08-03T21:38:29.631Z,90.50
2022-08-03T21:40:58.919Z,90.70
2022-08-03T21:43:28.122Z,91.10
2022-08-03T21:45:59.125Z,90.90
2022-08-03T21:48:28.084Z,90.90
2022-08-03T21:50:55.962Z,91.20
2022-08-03T21:54:02.375Z,91.40
2022-08-03T21:56:19.828Z,91.40
2022-08-03T21:58:51.289Z,91.60
2022-08-03T22:01:22.759Z,91.70
2022-08-03T22:03:54.135Z,92.00
2022-08-03T22:06:22.443Z,92.30
2022-08-03T22:08:54.850Z,92.50
2022-08-03T22:11:22.921Z,92.60
2022-08-03T22:13:52.426Z,92.80
2022-08-03T22:16:20.934Z,93.00
2022-08-03T22:18:48.769Z,93.20
2022-08-03T22:21:28.136Z,93.40
2022-08-03T22:24:06.568Z,93.60
2022-08-03T22:26:36.464Z,93.90
2022-08-03T22:29:08.520Z,94.00
2022-08-03T22:31:58.916Z,94.20
2022-08-03T22:34:27.529Z,94.50
2022-08-03T22:37:00.598Z,94.60
2022-08-03T22:39:29.326Z,94.70
2022-08-03T22:41:58.653Z,94.80
2022-08-03T22:44:28.845Z,94.80
2022-08-03T22:46:57.102Z,95.10
2022-08-03T22:49:25.386Z,95.20
2022-08-03T22:51:53.589Z,95.50
2022-08-03T22:54:21.860Z,95.80
2022-08-03T22:56:50.694Z,96.10
2022-08-03T22:59:41.351Z,96.40
2022-08-03T23:02:20.169Z,96.60
2022-08-03T23:04:51.659Z,96.80
2022-08-03T23:07:22.771Z,96.80
2022-08-03T23:09:50.961Z,96.90
2022-08-03T23:12:20.347Z,97.00
2022-08-03T23:14:54.103Z,97.00
2022-08-03T23:17:24.234Z,97.10
2022-08-03T23:19:53.772Z,97.20
2022-08-03T23:22:30.423Z,97.40
2022-08-03T23:25:01.309Z,97.70
2022-08-03T23:27:29.467Z,97.80
2022-08-03T23:29:59.218Z,98.00
2022-08-03T23:32:29.904Z,98.10
2022-08-03T23:35:18.044Z,98.30
2022-08-03T23:38:05.284Z,98.60
2022-08-03T23:40:34.874Z,98.70
2022-08-03T23:43:03.601Z,98.80
2022-08-03T23:45:35.935Z,98.90
2022-08-03T23:48:05.593Z,99.10
2022-08-03T23:50:44.269Z,99.10
2022-08-03T23:53:18.868Z,99.30
2022-08-03T23:56:01.293Z,99.40
2022-08-03T23:58:43.098Z,99.60
